Time;durP1;ratioP1;P1;durP2;ratioP2;P2;SDS_P1;SDS_P2;PMS_P1;PMS_P2;Temp;Humidity;BMP_temperature;BMP_pressure;BME280_temperature;BME280_humidity;BME280_pressure;Samples;Min_cycle;Max_cycle;Signal;HPM_P1;HPM_P2
2021/05/25 00:01:55;;;;;;;5.20;3.50;;;8.30;99.90;;;;;;5111579;27;20421;-90
2021/05/25 00:04:20;;;;;;;7.63;5.45;;;8.30;99.90;;;;;;5093766;28;20074;-90
2021/05/25 00:06:46;;;;;;;4.53;4.15;;;8.30;99.90;;;;;;5113994;27;20043;-90
2021/05/25 00:09:14;;;;;;;7.95;4.82;;;8.30;99.90;;;;;;5078330;27;20116;-91
2021/05/25 00:11:40;;;;;;;8.60;4.68;;;8.40;99.90;;;;;;5098616;28;20066;-91
2021/05/25 00:14:06;;;;;;;7.10;5.10;;;8.50;99.90;;;;;;5103805;28;20044;-91
2021/05/25 00:16:31;;;;;;;5.32;4.32;;;8.50;99.90;;;;;;5131610;27;20084;-92
2021/05/25 00:18:58;;;;;;;5.53;3.90;;;8.50;99.90;;;;;;5101928;28;20051;-91
2021/05/25 00:21:24;;;;;;;9.57;4.45;;;8.50;99.90;;;;;;5129885;27;20080;-91
2021/05/25 00:23:50;;;;;;;4.15;3.92;;;8.60;99.90;;;;;;5132427;27;20047;-91
2021/05/25 00:26:16;;;;;;;4.78;3.85;;;8.60;99.90;;;;;;5093985;27;20100;-91
2021/05/25 00:28:42;;;;;;;6.38;5.45;;;8.70;99.90;;;;;;5113875;27;20509;-92
2021/05/25 00:37:26;;;;;;;17.40;4.53;;;8.70;99.90;;;;;;5055040;22;20073;-80
2021/05/25 00:41:27;;;;;;;5.03;4.53;;;8.70;99.90;;;;;;5016196;28;20100;-80
2021/05/25 00:44:13;;;;;;;4.93;4.53;;;8.80;99.90;;;;;;4937844;28;20055;-79
2021/05/25 00:46:39;;;;;;;4.60;3.50;;;8.80;99.90;;;;;;4990720;28;20140;-79
2021/05/25 00:49:46;;;;;;;5.13;3.40;;;8.80;99.90;;;;;;5012383;28;20037;-81
2021/05/25 00:52:52;;;;;;;4.75;2.83;;;8.80;99.90;;;;;;4963479;28;20447;-81
2021/05/25 00:55:35;;;;;;;11.45;2.50;;;8.90;99.90;;;;;;5011485;28;20592;-84
2021/05/25 00:58:24;;;;;;;7.78;2.40;;;8.90;99.90;;;;;;5011924;28;20390;-83
2021/05/25 01:01:47;;;;;;;10.73;2.47;;;9.00;99.90;;;;;;4927822;29;20416;-83
2021/05/25 01:04:59;;;;;;;5.95;2.47;;;9.00;99.90;;;;;;4985401;28;20045;-84
2021/05/25 01:07:43;;;;;;;11.13;2.95;;;9.00;99.90;;;;;;4969749;28;20073;-83
2021/05/25 01:10:12;;;;;;;25.02;3.20;;;8.90;99.90;;;;;;4955212;28;20112;-81
2021/05/25 01:12:49;;;;;;;22.25;2.88;;;8.90;99.90;;;;;;4987914;28;20086;-81
2021/05/25 01:15:17;;;;;;;2.80;2.30;;;8.90;99.90;;;;;;4971057;28;20129;-82
2021/05/25 01:17:55;;;;;;;2.53;2.33;;;8.80;99.90;;;;;;4987881;28;20050;-81
2021/05/25 01:20:32;;;;;;;3.20;2.60;;;8.80;99.90;;;;;;4987823;28;20050;-83
2021/05/25 01:23:04;;;;;;;3.45;2.30;;;8.80;99.90;;;;;;4971423;28;20434;-87
2021/05/25 01:27:05;;;;;;;7.57;2.67;;;8.80;99.90;;;;;;4902112;29;20056;-82
2021/05/25 01:30:25;;;;;;;4.75;2.15;;;8.80;99.90;;;;;;4794927;29;20051;-85
2021/05/25 01:33:40;;;;;;;4.53;2.50;;;8.90;99.90;;;;;;4787569;29;20059;-85
2021/05/25 01:36:53;;;;;;;4.57;2.40;;;8.80;99.90;;;;;;4790638;29;20086;-82
2021/05/25 01:39:45;;;;;;;11.18;2.42;;;8.80;99.90;;;;;;4832261;29;20068;-81
2021/05/25 01:42:13;;;;;;;9.43;2.17;;;8.80;99.90;;;;;;4821099;29;20081;-84
2021/05/25 01:44:40;;;;;;;5.47;2.17;;;8.80;99.90;;;;;;4854575;29;20061;-85
2021/05/25 01:47:06;;;;;;;7.45;2.30;;;8.80;99.90;;;;;;4838774;29;20056;-87
2021/05/25 01:49:33;;;;;;;6.82;2.38;;;8.80;99.90;;;;;;4838645;29;20049;-83
2021/05/25 01:52:08;;;;;;;3.83;2.88;;;8.80;99.90;;;;;;4850102;29;20132;-88
2021/05/25 01:54:34;;;;;;;7.82;2.58;;;8.80;99.90;;;;;;4858413;29;20049;-83
2021/05/25 01:57:01;;;;;;;3.35;2.60;;;8.90;99.90;;;;;;4886818;29;20409;-83
2021/05/25 01:59:30;;;;;;;2.47;2.25;;;8.90;99.90;;;;;;4910137;28;20039;-82
2021/05/25 02:01:56;;;;;;;3.17;2.55;;;8.90;99.90;;;;;;4971673;28;20546;-83
2021/05/25 02:04:21;;;;;;;3.60;2.40;;;8.90;99.90;;;;;;4965048;28;20051;-83
2021/05/25 02:06:47;;;;;;;3.15;2.40;;;8.90;99.90;;;;;;4947254;28;20054;-83
2021/05/25 02:09:13;;;;;;;4.60;2.33;;;8.90;99.90;;;;;;4968700;28;20133;-83
2021/05/25 02:11:39;;;;;;;6.43;2.33;;;8.90;99.90;;;;;;4942311;28;20057;-83
2021/05/25 02:14:05;;;;;;;8.00;2.53;;;8.90;99.90;;;;;;4968318;28;20058;-88
2021/05/25 02:16:31;;;;;;;2.58;2.38;;;8.90;99.90;;;;;;4985041;28;20038;-83
2021/05/25 02:18:56;;;;;;;7.93;2.40;;;8.90;99.90;;;;;;4967658;28;20054;-85
2021/05/25 02:21:25;;;;;;;3.22;2.50;;;8.90;99.90;;;;;;4970405;28;20123;-82
2021/05/25 02:23:53;;;;;;;4.63;2.47;;;8.90;99.90;;;;;;4987598;28;20541;-83
2021/05/25 02:26:28;;;;;;;3.75;2.65;;;8.90;99.90;;;;;;4955046;28;20511;-84
2021/05/25 02:29:17;;;;;;;3.92;2.67;;;8.90;99.90;;;;;;4986687;28;20525;-85
2021/05/25 02:31:53;;;;;;;5.30;3.10;;;8.90;99.90;;;;;;4938339;28;20047;-83
2021/05/25 02:35:00;;;;;;;5.53;3.50;;;8.90;99.90;;;;;;4941015;28;20059;-83
2021/05/25 02:37:35;;;;;;;6.85;3.53;;;8.90;99.90;;;;;;4967461;28;20055;-82
2021/05/25 02:40:32;;;;;;;4.00;3.60;;;8.90;99.90;;;;;;4938113;28;20054;-82
2021/05/25 02:42:59;;;;;;;5.47;3.70;;;8.90;99.90;;;;;;4963568;28;20059;-84
2021/05/25 02:45:25;;;;;;;5.63;3.90;;;8.90;99.90;;;;;;4959611;28;20061;-83
2021/05/25 02:47:51;;;;;;;7.65;4.15;;;8.90;99.90;;;;;;4961021;28;20050;-83
2021/05/25 02:50:17;;;;;;;4.20;3.78;;;8.90;99.90;;;;;;4987998;28;20137;-85
2021/05/25 02:52:45;;;;;;;10.55;4.10;;;8.80;99.90;;;;;;4990903;28;20057;-83
2021/05/25 02:55:15;;;;;;;5.53;4.05;;;8.80;99.90;;;;;;4990551;28;20494;-88
2021/05/25 02:57:42;;;;;;;6.20;3.90;;;8.90;99.90;;;;;;4991153;28;20042;-83
2021/05/25 03:00:43;;;;;;;4.10;3.70;;;8.80;99.90;;;;;;4989791;28;20106;-83
2021/05/25 03:03:13;;;;;;;4.90;4.50;;;8.80;99.90;;;;;;4986026;28;20046;-86
2021/05/25 03:05:40;;;;;;;5.30;4.75;;;8.90;99.90;;;;;;4998136;28;20062;-83
2021/05/25 03:08:11;;;;;;;5.72;4.20;;;8.90;99.90;;;;;;4978374;28;20056;-87
2021/05/25 03:10:55;;;;;;;5.28;4.78;;;8.90;99.90;;;;;;4968165;28;20047;-82
2021/05/25 03:13:24;;;;;;;9.00;5.40;;;8.90;99.90;;;;;;4906864;29;20507;-83
2021/05/25 03:15:51;;;;;;;6.03;5.45;;;8.80;99.90;;;;;;4932181;28;20058;-83
2021/05/25 03:18:17;;;;;;;7.38;6.22;;;8.90;99.90;;;;;;4938639;28;20515;-84
2021/05/25 03:20:45;;;;;;;7.00;5.95;;;8.90;99.90;;;;;;4954728;28;20066;-82
2021/05/25 03:23:19;;;;;;;16.45;6.97;;;8.90;99.90;;;;;;4954305;28;20066;-84
2021/05/25 03:25:47;;;;;;;8.52;7.18;;;8.90;99.90;;;;;;4956620;28;20054;-84
2021/05/25 03:28:13;;;;;;;17.48;7.38;;;8.90;99.90;;;;;;4955218;28;20058;-88
2021/05/25 03:30:39;;;;;;;16.40;7.75;;;8.90;99.90;;;;;;4923886;28;20047;-83
2021/05/25 03:33:06;;;;;;;4.38;2.40;;;8.80;99.90;;;;;;4955302;28;20105;-83
2021/05/25 03:35:33;;;;;;;4.35;2.58;;;8.60;99.90;;;;;;4970094;28;20055;-82
2021/05/25 03:38:08;;;;;;;7.15;2.20;;;8.50;99.90;;;;;;4938384;28;20086;-81
2021/05/25 03:40:37;;;;;;;3.35;2.10;;;8.40;99.90;;;;;;4956465;28;20395;-83
2021/05/25 03:43:38;;;;;;;3.70;2.08;;;8.40;99.90;;;;;;4999644;28;20132;-81
2021/05/25 03:46:13;;;;;;;4.82;1.10;;;8.30;99.90;;;;;;5008766;28;20053;-82
2021/05/25 03:48:49;;;;;;;1.30;1.20;;;8.30;99.90;;;;;;5009451;28;20073;-83
2021/05/25 03:51:15;;;;;;;0.88;0.70;;;8.30;99.90;;;;;;5007562;28;20184;-87
2021/05/25 03:53:42;;;;;;;3.80;1.38;;;8.20;99.90;;;;;;5008679;28;20053;-83
2021/05/25 03:58:48;;;;;;;3.00;1.17;;;8.10;99.90;;;;;;5001689;28;20125;-82
2021/05/25 04:01:25;;;;;;;1.42;1.00;;;8.10;99.90;;;;;;4985315;28;20196;-85
2021/05/25 04:03:54;;;;;;;1.33;0.80;;;8.00;99.90;;;;;;5008886;28;20072;-85
2021/05/25 04:06:43;;;;;;;0.93;0.70;;;8.00;99.90;;;;;;4952967;28;20181;-83
2021/05/25 04:09:12;;;;;;;1.25;0.68;;;7.90;99.90;;;;;;4912532;29;20548;-85
2021/05/25 04:11:38;;;;;;;2.57;0.70;;;7.90;99.90;;;;;;4874852;29;20060;-83
2021/05/25 04:14:32;;;;;;;2.78;0.73;;;7.80;99.90;;;;;;4891211;29;20071;-83
2021/05/25 04:17:20;;;;;;;2.30;0.60;;;7.80;99.90;;;;;;4896590;29;20155;-83
2021/05/25 04:19:57;;;;;;;3.13;0.70;;;7.80;99.90;;;;;;4897296;29;20040;-85
2021/05/25 04:26:36;;;;;;;5.33;0.70;;;7.70;99.90;;;;;;4891727;29;20123;-83
2021/05/25 04:29:33;;;;;;;3.35;0.70;;;7.70;99.90;;;;;;4896279;29;20076;-83
2021/05/25 04:31:59;;;;;;;1.33;0.60;;;7.70;99.90;;;;;;4885764;29;20129;-82
2021/05/25 04:34:25;;;;;;;6.38;1.10;;;7.70;99.90;;;;;;4880536;29;20055;-84
2021/05/25 04:36:51;;;;;;;0.50;0.40;;;7.70;99.90;;;;;;4910171;29;20052;-83
2021/05/25 04:39:38;;;;;;;1.45;0.85;;;7.70;99.90;;;;;;4904565;29;20148;-87
2021/05/25 04:42:08;;;;;;;7.20;0.80;;;7.70;99.90;;;;;;4904966;29;20441;-83
2021/05/25 04:45:00;;;;;;;2.03;0.52;;;7.70;99.90;;;;;;4843270;29;20498;-82
2021/05/25 04:47:31;;;;;;;5.18;0.60;;;7.70;99.90;;;;;;4857863;29;20124;-83
2021/05/25 04:49:56;;;;;;;2.90;0.52;;;7.70;99.90;;;;;;4859036;29;20067;-85
2021/05/25 04:52:30;;;;;;;2.50;0.90;;;7.70;99.90;;;;;;4853686;29;20053;-83
2021/05/25 04:54:58;;;;;;;1.73;0.93;;;7.70;99.90;;;;;;4859146;29;20057;-83
2021/05/25 04:57:31;;;;;;;2.65;0.68;;;7.70;99.90;;;;;;4873486;29;20057;-83
2021/05/25 05:00:10;;;;;;;7.20;0.90;;;7.70;99.90;;;;;;4908280;29;20143;-84
2021/05/25 05:02:37;;;;;;;3.28;1.00;;;7.70;99.90;;;;;;4918996;29;20056;-83
2021/05/25 05:05:07;;;;;;;4.00;0.90;;;7.80;99.90;;;;;;4930275;29;20059;-87
2021/05/25 05:07:33;;;;;;;5.22;0.90;;;7.80;99.90;;;;;;4914750;29;20524;-86
2021/05/25 05:10:00;;;;;;;5.47;0.80;;;7.80;99.90;;;;;;4938814;29;20054;-84
2021/05/25 05:12:26;;;;;;;4.32;0.80;;;7.80;99.90;;;;;;4929410;29;20130;-85
2021/05/25 05:14:53;;;;;;;6.80;0.82;;;7.80;99.90;;;;;;4914867;28;20515;-85
2021/05/25 05:17:23;;;;;;;5.57;0.77;;;7.80;99.90;;;;;;4969326;28;20519;-89
2021/05/25 05:19:49;;;;;;;1.42;0.60;;;7.90;99.90;;;;;;4981089;28;20506;-86
2021/05/25 05:22:16;;;;;;;2.72;1.05;;;7.90;99.90;;;;;;4985760;28;20059;-84
2021/05/25 05:24:42;;;;;;;3.08;0.70;;;7.90;99.90;;;;;;4983413;28;20148;-85
2021/05/25 05:27:07;;;;;;;2.63;0.80;;;7.90;99.90;;;;;;4972286;28;20410;-84
2021/05/25 05:29:40;;;;;;;4.78;0.80;;;7.90;99.90;;;;;;4972748;28;20453;-84
2021/05/25 05:32:13;;;;;;;3.88;1.00;;;8.00;99.90;;;;;;4988456;28;20053;-85
2021/05/25 05:34:39;;;;;;;3.58;0.70;;;8.00;99.90;;;;;;4971958;28;20049;-86
2021/05/25 05:37:06;;;;;;;10.80;1.20;;;8.10;99.90;;;;;;4987980;28;20058;-84
2021/05/25 05:39:33;;;;;;;6.32;1.23;;;8.10;99.90;;;;;;4986553;28;20593;-86
2021/05/25 05:42:10;;;;;;;8.60;2.25;;;8.10;99.90;;;;;;5014113;28;20057;-87
2021/05/25 05:44:44;;;;;;;5.95;1.77;;;8.20;99.90;;;;;;5033784;28;20052;-85
2021/05/25 05:47:11;;;;;;;4.07;0.93;;;8.20;99.90;;;;;;5031145;28;20098;-85
2021/05/25 05:49:39;;;;;;;3.13;0.90;;;8.20;99.90;;;;;;5031066;28;20076;-86
2021/05/25 05:52:15;;;;;;;2.72;0.52;;;8.20;99.90;;;;;;5019005;28;20050;-86
2021/05/25 05:54:41;;;;;;;4.45;0.95;;;8.30;99.90;;;;;;5012798;28;20532;-86
2021/05/25 05:57:14;;;;;;;4.35;1.00;;;8.20;99.90;;;;;;5015936;28;20124;-84
2021/05/25 05:59:47;;;;;;;1.48;0.55;;;8.30;99.90;;;;;;5015982;28;20498;-84
2021/05/25 06:02:14;;;;;;;2.55;1.05;;;8.40;99.90;;;;;;5049699;28;20048;-86
2021/05/25 06:04:40;;;;;;;1.98;0.65;;;8.40;99.90;;;;;;5031468;28;20237;-87
2021/05/25 06:07:06;;;;;;;6.25;0.55;;;8.40;99.90;;;;;;5031500;28;20463;-85
2021/05/25 06:09:37;;;;;;;8.10;0.85;;;8.40;99.90;;;;;;5030423;28;20128;-85
2021/05/25 06:12:09;;;;;;;4.32;1.00;;;8.40;99.90;;;;;;5032777;28;20036;-85
2021/05/25 06:14:35;;;;;;;1.10;0.60;;;8.40;99.90;;;;;;5014129;28;20144;-84
2021/05/25 06:17:02;;;;;;;5.32;0.80;;;8.50;99.90;;;;;;5031237;28;20495;-85
2021/05/25 06:19:47;;;;;;;4.40;1.08;;;8.50;99.90;;;;;;4960765;28;20050;-84
2021/05/25 06:22:48;;;;;;;3.65;0.77;;;8.50;99.90;;;;;;4967241;28;20502;-85
2021/05/25 06:25:40;;;;;;;3.17;0.73;;;8.60;99.90;;;;;;4941845;29;20050;-84
2021/05/25 06:28:09;;;;;;;2.53;0.75;;;8.60;99.90;;;;;;4928828;29;20051;-85
2021/05/25 06:31:10;;;;;;;2.70;0.63;;;8.70;99.90;;;;;;4947882;29;20047;-84
2021/05/25 06:34:04;;;;;;;3.78;0.93;;;8.80;99.90;;;;;;4902256;29;20155;-84
2021/05/25 06:36:37;;;;;;;4.20;0.63;;;8.80;99.90;;;;;;4843170;29;20060;-85
2021/05/25 06:39:18;;;;;;;2.85;1.13;;;8.80;99.90;;;;;;4817529;29;20527;-84
2021/05/25 06:41:44;;;;;;;2.58;0.93;;;8.90;99.90;;;;;;4860743;29;20213;-84
2021/05/25 06:44:10;;;;;;;1.65;0.80;;;8.90;99.90;;;;;;4857568;29;20064;-84
2021/05/25 06:46:35;;;;;;;1.48;0.90;;;8.90;99.90;;;;;;4841237;29;20076;-84
2021/05/25 06:49:01;;;;;;;3.85;0.65;;;9.00;99.90;;;;;;4842402;29;20061;-85
2021/05/25 06:51:27;;;;;;;2.13;0.93;;;9.00;99.90;;;;;;4857972;29;20064;-88
2021/05/25 06:54:05;;;;;;;2.17;0.75;;;9.10;99.90;;;;;;4868888;29;20527;-84
2021/05/25 06:56:38;;;;;;;3.33;0.90;;;9.20;99.90;;;;;;4870295;29;20049;-85
2021/05/25 06:59:22;;;;;;;2.08;0.77;;;9.30;99.90;;;;;;4872475;29;20097;-83
2021/05/25 07:02:04;;;;;;;1.13;0.53;;;9.30;99.90;;;;;;4864784;29;20690;-84
2021/05/25 07:04:38;;;;;;;1.77;0.90;;;9.50;99.90;;;;;;4871546;29;20297;-85
2021/05/25 07:08:04;;;;;;;1.20;0.50;;;9.60;99.90;;;;;;4890385;29;20048;-84
2021/05/25 07:17:31;;;;;;;3.28;0.85;;;9.90;99.90;;;;;;4913730;28;20142;-86
2021/05/25 07:20:17;;;;;;;1.08;0.77;;;10.00;99.90;;;;;;4931985;28;20105;-86
2021/05/25 07:58:08;;;;;;;2.22;0.90;;;10.90;99.90;;;;;;4875334;29;20040;-82
2021/05/25 08:09:31;;;;;;;0.75;0.60;;;11.20;99.90;;;;;;4799606;29;20935;-82
2021/05/25 08:12:32;;;;;;;2.97;0.70;;;11.00;99.90;;;;;;4757919;30;20070;-82
2021/05/25 08:15:55;;;;;;;0.75;0.70;;;11.00;99.90;;;;;;4883491;29;20499;-82
2021/05/25 08:19:27;;;;;;;0.85;0.63;;;11.10;99.90;;;;;;4799869;29;20065;-81
2021/05/25 08:26:47;;;;;;;2.65;0.60;;;11.10;99.90;;;;;;4799601;29;20506;-82
2021/05/25 08:34:09;;;;;;;2.47;0.43;;;11.20;99.90;;;;;;4751429;30;20087;-83
2021/05/25 08:41:26;;;;;;;0.75;0.40;;;11.30;99.90;;;;;;4832123;29;20133;-82
2021/05/25 08:44:16;;;;;;;0.80;0.55;;;11.10;99.90;;;;;;4849998;29;20053;-81
2021/05/25 08:47:21;;;;;;;0.85;0.47;;;11.00;99.90;;;;;;4859681;29;20065;-84
2021/05/25 08:53:35;;;;;;;1.73;0.60;;;10.50;99.90;;;;;;4907303;29;20119;-82
2021/05/25 08:56:28;;;;;;;0.55;0.40;;;10.40;99.90;;;;;;4918881;29;20519;-82
2021/05/25 08:59:53;;;;;;;5.65;0.98;;;10.30;99.90;;;;;;4898677;29;20103;-82
2021/05/25 09:02:45;;;;;;;2.45;0.38;;;10.10;99.90;;;;;;4872161;29;20130;-79
2021/05/25 09:05:46;;;;;;;;;;;10.10;99.90;;;;;;4896342;29;20057;-81
2021/05/25 09:09:18;;;;;;;0.45;0.45;;;10.00;99.90;;;;;;4912603;28;19929;-81
2021/05/25 09:12:16;;;;;;;0.50;0.50;;;10.00;99.90;;;;;;4983391;28;20463;-81
2021/05/25 09:14:57;;;;;;;2.78;0.50;;;10.00;99.90;;;;;;4966854;28;20054;-81
2021/05/25 09:17:25;;;;;;;1.33;0.40;;;10.10;99.90;;;;;;4949013;28;20058;-84
2021/05/25 09:24:31;;;;;;;0.50;0.50;;;10.30;99.90;;;;;;4981279;28;20033;-81
2021/05/25 09:28:08;;;;;;;1.25;0.65;;;10.50;99.90;;;;;;4936143;28;20119;-81
2021/05/25 09:35:24;;;;;;;4.50;0.80;;;10.80;99.90;;;;;;4864759;29;20048;-85
2021/05/25 09:50:42;;;;;;;0.95;0.65;;;10.50;99.90;;;;;;4850314;29;20068;-83
2021/05/25 09:54:40;;;;;;;0.60;0.60;;;10.20;99.90;;;;;;4834256;29;20118;-83
2021/05/25 09:57:50;;;;;;;1.02;0.45;;;10.00;99.90;;;;;;4821925;29;20071;-82
2021/05/25 10:00:36;;;;;;;1.17;0.70;;;9.70;99.90;;;;;;4911334;29;20103;-82
2021/05/25 10:07:12;;;;;;;2.15;0.50;;;9.50;99.90;;;;;;4893546;28;20047;-82
2021/05/25 10:10:14;;;;;;;0.85;0.35;;;9.40;99.90;;;;;;4922925;28;20286;-82
2021/05/25 10:13:14;;;;;;;2.03;0.70;;;9.40;99.90;;;;;;4933606;28;20047;-83
2021/05/25 10:15:49;;;;;;;0.35;0.35;;;9.40;99.90;;;;;;4915528;29;20043;-86
2021/05/25 10:20:43;;;;;;;1.02;0.43;;;9.30;99.90;;;;;;4947289;28;20051;-85
2021/05/25 10:23:09;;;;;;;2.03;0.45;;;9.30;99.90;;;;;;4930438;28;20055;-82
2021/05/25 10:25:39;;;;;;;0.98;0.75;;;9.20;99.90;;;;;;4932844;29;20061;-82
2021/05/25 10:28:12;;;;;;;0.75;0.25;;;9.10;99.90;;;;;;4947729;28;20051;-84
2021/05/25 10:30:43;;;;;;;3.67;1.05;;;9.00;99.90;;;;;;4936642;28;20515;-82
2021/05/25 10:33:09;;;;;;;1.08;0.50;;;9.00;99.90;;;;;;4947769;28;20503;-83
2021/05/25 10:36:11;;;;;;;1.73;0.73;;;9.00;99.90;;;;;;4931461;29;20094;-82
2021/05/25 10:38:46;;;;;;;6.18;0.52;;;9.00;99.90;;;;;;4930313;29;20055;-82
2021/05/25 10:41:35;;;;;;;0.40;0.40;;;9.00;99.90;;;;;;4934849;28;20088;-83
2021/05/25 10:44:02;;;;;;;0.77;0.40;;;8.90;99.90;;;;;;4941547;28;20043;-85
2021/05/25 10:46:30;;;;;;;1.17;0.52;;;9.00;99.90;;;;;;4941942;28;20515;-83
2021/05/25 10:51:46;;;;;;;3.35;0.50;;;8.90;99.90;;;;;;5030775;28;20063;-84
2021/05/25 10:54:42;;;;;;;0.40;0.40;;;8.90;99.90;;;;;;5029235;28;20048;-84
2021/05/25 10:57:40;;;;;;;1.48;0.80;;;8.90;99.90;;;;;;5047956;28;20041;-82
2021/05/25 11:00:13;;;;;;;0.52;0.45;;;9.00;99.90;;;;;;5029153;28;20045;-85
2021/05/25 11:02:52;;;;;;;1.10;0.70;;;9.00;99.90;;;;;;5049888;28;20107;-84
2021/05/25 11:05:28;;;;;;;1.85;0.73;;;9.10;99.90;;;;;;5018044;28;20052;-84
2021/05/25 11:08:13;;;;;;;1.40;0.73;;;9.00;99.90;;;;;;5032953;28;20033;-84
2021/05/25 11:10:40;;;;;;;1.85;0.88;;;9.10;99.90;;;;;;5034172;28;20456;-82
2021/05/25 11:13:19;;;;;;;2.50;1.08;;;9.20;99.90;;;;;;5051184;28;20056;-83
2021/05/25 11:16:15;;;;;;;2.38;0.70;;;9.30;99.90;;;;;;5033812;28;20049;-86
2021/05/25 11:18:54;;;;;;;0.90;0.90;;;9.30;99.90;;;;;;5040841;28;20041;-83
2021/05/25 11:24:44;;;;;;;1.33;0.70;;;9.50;99.90;;;;;;5032145;28;20065;-84
2021/05/25 11:27:13;;;;;;;3.17;0.93;;;9.60;99.90;;;;;;5030348;28;20048;-85
2021/05/25 11:29:55;;;;;;;0.60;0.60;;;9.70;99.90;;;;;;5033318;28;20397;-84
2021/05/25 11:32:25;;;;;;;5.85;0.93;;;9.70;99.90;;;;;;5049279;28;20041;-84
2021/05/25 11:35:03;;;;;;;0.63;0.55;;;9.70;99.90;;;;;;5013420;28;20060;-85
2021/05/25 11:37:39;;;;;;;1.65;0.60;;;9.70;99.90;;;;;;5032026;28;20060;-82
2021/05/25 11:40:18;;;;;;;0.47;0.45;;;9.70;99.90;;;;;;5031993;28;20052;-82
2021/05/25 11:42:47;;;;;;;0.85;0.70;;;9.70;99.90;;;;;;5033439;28;20044;-81
2021/05/25 11:45:16;;;;;;;1.10;0.63;;;9.60;99.90;;;;;;5050592;28;20053;-84
2021/05/25 11:47:42;;;;;;;3.38;0.90;;;9.60;99.90;;;;;;5016572;28;20390;-82
2021/05/25 11:50:11;;;;;;;1.35;0.70;;;9.60;99.90;;;;;;5031716;28;20060;-82
2021/05/25 11:52:39;;;;;;;2.55;0.80;;;9.60;99.90;;;;;;5051309;28;20043;-81
2021/05/25 11:55:13;;;;;;;3.08;0.75;;;9.60;99.90;;;;;;5032278;28;20034;-82
2021/05/25 11:57:42;;;;;;;2.35;0.80;;;9.70;99.90;;;;;;5033096;28;20048;-82
2021/05/25 12:00:09;;;;;;;4.70;1.10;;;9.60;99.90;;;;;;5050183;28;20477;-82
2021/05/25 12:02:35;;;;;;;5.18;1.13;;;9.60;99.90;;;;;;5033134;28;20659;-82
2021/05/25 12:05:10;;;;;;;4.45;1.17;;;9.60;99.90;;;;;;5032204;28;20052;-83
2021/05/25 12:07:38;;;;;;;3.38;1.30;;;9.60;99.90;;;;;;5032790;28;20095;-82
2021/05/25 12:10:23;;;;;;;3.25;1.33;;;9.60;99.90;;;;;;4996311;28;20049;-83
2021/05/25 12:12:51;;;;;;;4.05;1.48;;;9.50;99.90;;;;;;5027777;28;20045;-82
2021/05/25 12:15:24;;;;;;;4.28;1.30;;;9.50;99.90;;;;;;5032440;28;20040;-82
2021/05/25 12:17:53;;;;;;;4.57;1.40;;;9.50;99.90;;;;;;5032600;28;20041;-84
2021/05/25 12:20:21;;;;;;;8.30;1.63;;;9.50;99.90;;;;;;5031965;28;20098;-83
2021/05/25 12:22:51;;;;;;;2.05;1.10;;;9.50;99.90;;;;;;5017142;28;20373;-82
2021/05/25 12:25:30;;;;;;;2.08;1.30;;;9.50;99.90;;;;;;5026797;28;20065;-83
2021/05/25 12:28:20;;;;;;;5.80;1.50;;;9.50;99.90;;;;;;5031779;28;20053;-86
2021/05/25 12:30:51;;;;;;;2.85;0.88;;;9.40;99.90;;;;;;5047161;28;20052;-83
2021/05/25 12:33:22;;;;;;;6.95;1.75;;;9.50;99.90;;;;;;5031879;28;20424;-81
2021/05/25 12:35:49;;;;;;;8.02;1.65;;;9.60;99.90;;;;;;5016820;28;20397;-81
2021/05/25 12:38:18;;;;;;;2.58;1.15;;;9.60;99.90;;;;;;5030896;28;20615;-82
2021/05/25 12:41:06;;;;;;;3.10;1.00;;;9.70;99.90;;;;;;5031876;28;20045;-82
2021/05/25 12:43:35;;;;;;;3.85;1.60;;;9.80;99.90;;;;;;5031822;28;20453;-83
2021/05/25 12:46:09;;;;;;;5.38;1.75;;;10.00;99.90;;;;;;5031374;28;20076;-82
2021/05/25 12:48:40;;;;;;;7.50;1.48;;;10.30;99.90;;;;;;5050281;28;20489;-83
2021/05/25 12:51:12;;;;;;;4.70;1.52;;;10.50;99.90;;;;;;5030813;28;20133;-83
2021/05/25 12:54:04;;;;;;;7.75;1.60;;;10.70;99.90;;;;;;5040842;28;20048;-84
2021/05/25 12:56:30;;;;;;;1.35;0.80;;;10.60;99.90;;;;;;5040192;28;20057;-83
2021/05/25 12:58:57;;;;;;;5.30;1.60;;;10.70;99.90;;;;;;5032001;28;20087;-86
2021/05/25 13:01:34;;;;;;;5.13;1.73;;;10.60;99.90;;;;;;5032076;28;20131;-83
2021/05/25 13:04:03;;;;;;;3.67;1.42;;;10.70;99.90;;;;;;5049372;28;20033;-82
2021/05/25 13:09:16;;;;;;;5.20;1.35;;;10.80;99.90;;;;;;5031586;28;20041;-85
2021/05/25 13:12:01;;;;;;;3.65;1.50;;;10.90;99.90;;;;;;5036200;28;20065;-84
2021/05/25 13:14:28;;;;;;;4.72;1.67;;;10.90;99.90;;;;;;5031869;28;20047;-82
2021/05/25 13:16:56;;;;;;;4.15;1.83;;;11.00;99.90;;;;;;5031454;28;20471;-84
2021/05/25 13:19:40;;;;;;;3.88;1.40;;;11.10;99.90;;;;;;5048955;28;20119;-83
2021/05/25 13:22:31;;;;;;;6.72;1.63;;;11.00;99.90;;;;;;5035966;28;20039;-82
2021/05/25 13:25:00;;;;;;;8.18;1.50;;;11.00;99.90;;;;;;5026549;28;20060;-85
2021/05/25 13:27:31;;;;;;;6.43;1.30;;;11.00;99.90;;;;;;5031683;28;20059;-83
2021/05/25 13:30:00;;;;;;;7.40;1.45;;;11.00;99.90;;;;;;5048929;28;20037;-85
2021/05/25 13:32:27;;;;;;;4.78;1.20;;;11.00;99.90;;;;;;5048953;28;20055;-83
2021/05/25 13:34:53;;;;;;;6.43;1.10;;;11.00;99.90;;;;;;5031462;28;20378;-82
2021/05/25 13:37:18;;;;;;;4.65;1.13;;;11.00;99.90;;;;;;5030503;28;20043;-83
2021/05/25 13:39:46;;;;;;;5.97;1.52;;;11.10;99.90;;;;;;5013989;28;20440;-82
2021/05/25 13:42:12;;;;;;;4.30;1.17;;;11.30;99.90;;;;;;5014325;28;20163;-82
2021/05/25 13:44:37;;;;;;;2.60;1.02;;;11.30;99.90;;;;;;5014777;28;20068;-83
2021/05/25 13:47:04;;;;;;;6.43;1.52;;;11.40;99.90;;;;;;5030320;28;20446;-82
2021/05/25 13:49:30;;;;;;;4.25;1.23;;;11.50;99.90;;;;;;5030634;28;20064;-85
2021/05/25 13:51:56;;;;;;;4.72;1.42;;;11.60;99.90;;;;;;5010916;28;20099;-82
2021/05/25 13:54:22;;;;;;;2.97;1.10;;;11.80;99.90;;;;;;5016340;28;20571;-83
2021/05/25 13:56:54;;;;;;;2.78;1.00;;;12.00;99.90;;;;;;5030735;28;20048;-82
2021/05/25 13:59:29;;;;;;;3.72;0.90;;;12.20;99.90;;;;;;5014770;28;20048;-82
2021/05/25 14:01:55;;;;;;;2.72;0.90;;;12.50;99.90;;;;;;5015655;28;20052;-82
2021/05/25 14:04:21;;;;;;;4.75;1.10;;;12.70;99.90;;;;;;5013834;28;20068;-82
2021/05/25 14:06:47;;;;;;;4.43;1.00;;;13.00;99.90;;;;;;5030380;28;20396;-82
2021/05/25 14:09:13;;;;;;;3.15;1.00;;;13.30;99.90;;;;;;5012907;28;20055;-82
2021/05/25 14:11:40;;;;;;;4.45;1.27;;;13.60;99.90;;;;;;5007779;28;20041;-82
2021/05/25 14:14:06;;;;;;;1.50;0.70;;;13.80;99.90;;;;;;5048049;28;20036;-83
2021/05/25 14:16:32;;;;;;;5.60;1.10;;;13.90;99.90;;;;;;5030476;28;20175;-82
2021/05/25 14:18:58;;;;;;;5.15;1.20;;;14.00;99.90;;;;;;5030981;28;20123;-83
2021/05/25 14:21:25;;;;;;;2.17;1.20;;;14.20;99.90;;;;;;5013777;28;20047;-81
2021/05/25 14:23:55;;;;;;;6.10;1.33;;;14.30;99.90;;;;;;5031364;28;20041;-82
2021/05/25 14:26:24;;;;;;;4.05;1.10;;;14.30;99.90;;;;;;5047277;28;20052;-82
2021/05/25 14:28:51;;;;;;;2.30;0.90;;;14.50;99.90;;;;;;5048340;28;20885;-82
2021/05/25 14:31:17;;;;;;;3.38;1.15;;;14.50;99.90;;;;;;5029852;28;20041;-82
2021/05/25 14:33:43;;;;;;;1.70;1.05;;;14.50;99.90;;;;;;5048450;28;20377;-83
2021/05/25 14:36:10;;;;;;;5.68;1.67;;;14.30;99.90;;;;;;5031918;28;20401;-83
2021/05/25 14:38:36;;;;;;;5.28;1.23;;;14.10;99.90;;;;;;5023184;28;20044;-83
2021/05/25 14:41:03;;;;;;;3.58;1.00;;;14.00;99.90;;;;;;5018840;28;20041;-83
2021/05/25 14:43:29;;;;;;;2.88;1.20;;;13.80;99.90;;;;;;5051940;28;20045;-83
2021/05/25 14:45:55;;;;;;;6.78;1.60;;;13.60;99.90;;;;;;5017849;28;20045;-84
2021/05/25 14:48:21;;;;;;;5.40;1.38;;;13.30;99.90;;;;;;5033798;28;20134;-83
2021/05/25 14:50:49;;;;;;;10.48;1.55;;;12.90;99.90;;;;;;5017173;28;20485;-85
2021/05/25 14:56:10;;;;;;;7.25;1.70;;;11.40;99.90;;;;;;5046190;28;20044;-85
2021/05/25 14:58:41;;;;;;;2.60;1.65;;;10.90;99.90;;;;;;5034743;28;20401;-85
2021/05/25 15:01:11;;;;;;;3.58;1.25;;;10.60;99.90;;;;;;5001506;28;20061;-87
2021/05/25 15:03:40;;;;;;;5.73;1.40;;;10.40;99.90;;;;;;5018156;28;20045;-84
2021/05/25 15:06:14;;;;;;;4.28;1.88;;;10.30;99.90;;;;;;5027015;28;20036;-85
2021/05/25 15:08:52;;;;;;;6.05;1.90;;;10.30;99.90;;;;;;5033558;28;20037;-85
2021/05/25 15:11:33;;;;;;;5.45;1.10;;;10.30;99.90;;;;;;5036307;28;20043;-86
2021/05/25 15:14:01;;;;;;;6.68;1.52;;;10.10;99.90;;;;;;5052349;28;20041;-87
2021/05/25 15:16:29;;;;;;;5.32;1.00;;;10.00;99.90;;;;;;5034229;28;20046;-86
2021/05/25 15:18:57;;;;;;;2.25;0.90;;;9.90;99.90;;;;;;4998191;28;20049;-86
2021/05/25 15:21:23;;;;;;;4.15;1.17;;;9.70;99.90;;;;;;5029216;28;20052;-86
2021/05/25 15:23:50;;;;;;;8.52;1.17;;;9.70;99.90;;;;;;5034126;28;20037;-85
2021/05/25 15:26:16;;;;;;;4.03;1.13;;;9.60;99.90;;;;;;5049957;28;20045;-85
2021/05/25 15:28:43;;;;;;;3.72;1.00;;;9.50;99.90;;;;;;5016894;28;20043;-88
2021/05/25 15:31:24;;;;;;;2.97;0.95;;;9.40;99.90;;;;;;5033685;28;20131;-88
2021/05/25 15:34:02;;;;;;;4.80;1.42;;;9.30;99.90;;;;;;5035596;28;20064;-86
2021/05/25 15:36:31;;;;;;;9.98;1.35;;;9.30;99.90;;;;;;5017690;28;20037;-85
2021/05/25 15:39:00;;;;;;;4.68;1.33;;;9.30;99.90;;;;;;5033558;28;20107;-85
2021/05/25 15:41:26;;;;;;;9.05;1.83;;;9.40;99.90;;;;;;5032096;28;20623;-86
2021/05/25 15:43:59;;;;;;;6.28;1.80;;;9.50;99.90;;;;;;5017466;28;20099;-85